Aérodrome :







RETROUVEZ-NOUS SUR...

 
LOGIN :

S'inscrire | Disclaimer

   EN    FR    IT 

 









Légende :    VFR   VFR Marginal   IFR   IFR Intensif   IFR Très Intensif
Visi : 
Plafond : 
>= 8 km
>= 3000ft
5 à 8 km
1000 à 3000 ft
1500m à 5 km
500 à 1000 ft
800 à 1500m
200 à 500 ft
< 800m
< 200 ft
Symboles :   Orages  Brouillard  Fortes neiges  Fortes précipitations  Vent > 20 kt






- Altitude de l'aérodrome : 1166 ft


KMPV - Edward F Knapp State

DERNIER METAR :
  • 261514Z AUTO 00000KT 1SM -RA BR VV005 01/01 A3005 RMK AO2 RAB02 P0000 T00110011

METARs EXPIRÉS :
  • 261507Z AUTO 00000KT 1 3/4SM -RA BR OVC005 01/01 A3005 RMK AO2 RAB02 P0000 T00110011
  • 261451Z AUTO 00000KT 2 1/2SM BR OVC005 01/01 A3005 RMK AO2 SLP191 I3000 T00110011 56013
  • 261429Z AUTO 00000KT 4SM BR OVC006 01/01 A3006 RMK AO2 T00110006
  • 261414Z AUTO 00000KT 2 1/2SM BR OVC006 01/01 A3006 RMK AO2 T00060006
  • 261404Z AUTO 00000KT 1 1/2SM BR OVC006 00/00 A3006 RMK AO2 T00000000
  • 261358Z AUTO 00000KT 1SM BR OVC006 01/01 A3007 RMK AO2 T00060006
  • 261342Z AUTO 00000KT 2SM BR OVC006 01/01 A3007 RMK AO2 I1000 T00060006
  • 261335Z AUTO 00000KT 1 3/4SM BR OVC006 01/01 A3007 RMK AO2 I1000 T00060006
  • 261324Z AUTO 00000KT 1 1/4SM BR OVC006 01/01 A3008 RMK AO2 I1000 T00060006
  • 261310Z AUTO 00000KT 1SM BR OVC006 01/01 A3008 RMK AO2 T00060006
  • 261251Z AUTO 00000KT 3/4SM BR OVC005 00/00 A3008 RMK AO2 SLP201 T00000000
  • 261226Z AUTO 00000KT 1 1/2SM BR OVC004 00/00 A3008 RMK AO2 T00000000

TAF KMPV
Valide du 26 à 12h jusqu'au 27 à 12h UTC


261137Z 2612/2712 00000KT 2SM BR VCSH OVC008 WS020/20035KT
TEMPO 2612/2614 1SM BR BKN003 OVC008
FM261400 00000KT 3SM BR VCSH OVC013
FM262200 00000KT 4SM BR OVC012
FM270500 00000KT 1 1/2SM BR OVC008
FIR KZBW / Amérique du Nord



MET'MAP, la Météo Aéronautique d'un coup d'oeil ! - Copyright ORBIFLY Décembre 2007 - Disclaimer

ORBIFLY MET'MAP TEAM :

Programmation & Développement : Alexandra Zaïnal
Sur une idée originale de : Baudouin d'Aumeries
Assistance à la programmation : Marc-Olivier Méhu
Soutien technique & logistique : Manuel Goepfert

Contact : metmap@orbifly.com




SOURCES & CREDITS :

   NOAA